This is the latest recevied weather packets stored in our database for station/object SQ9SMC-13. If no packets are shown the sender has not sent any weather packets the latest 10 day(s).
| Time | Temp. | Humidity | Pressure | Rain* | Wind** | Luminosity | Snow |
|---|---|---|---|---|---|---|---|
| 1777197602 | 11.11° C | 41% | 1022 hPa | 0 mm | - | 729 W/m² | - |
| 1777197304 | 11.11° C | 42% | 1021.9 hPa | 0 mm | - | 781 W/m² | - |
| 1777197004 | 10.56° C | 45% | 1021.8 hPa | 0 mm | - | 439 W/m² | - |
| 1777196702 | 10° C | 47% | 1021.7 hPa | 0 mm | - | 665 W/m² | - |
| 1777196403 | 9.44° C | 46% | 1021.7 hPa | 0 mm | - | 754 W/m² | - |
| 1777196104 | 10° C | 44% | 1022 hPa | 0 mm | - | 142 W/m² | - |
| 1777195803 | 11.11° C | 43% | 1021.7 hPa | 0 mm | - | 346 W/m² | - |
| 1777195503 | 10° C | 46% | 1021.9 hPa | 0 mm | - | 633 W/m² | - |
| 1777195204 | 8.89° C | 51% | 1021.8 hPa | 0 mm | - | 645 W/m² | - |
| 1777194903 | 8.89° C | 48% | 1021.7 hPa | 0 mm | - | 138 W/m² | - |
| 1777194604 | 10° C | 44% | 1021.5 hPa | 0 mm | - | 165 W/m² | - |
| 1777194303 | 10° C | 49% | 1021.4 hPa | 0 mm | - | 642 W/m² | - |
| 1777194006 | 8.89° C | 52% | 1021.6 hPa | 0 mm | - | 575 W/m² | - |
| 1777193705 | 10° C | 52% | 1021.5 hPa | 0 mm | - | 132 W/m² | - |
| 1777193404 | 9.44° C | 48% | 1021.3 hPa | 0 mm | - | 188 W/m² | - |
| 1777193103 | 10° C | 47% | 1021.4 hPa | 0 mm | - | 627 W/m² | - |
| 1777192803 | 8.89° C | 53% | 1021.2 hPa | 0 mm | - | 575 W/m² | - |
| 1777192505 | 8.89° C | 56% | 1021.4 hPa | 0 mm | - | 535 W/m² | - |
| 1777192203 | 7.22° C | 59% | 1021.4 hPa | 0 mm | - | 147 W/m² | - |
| 1777191905 | 8.33° C | 56% | 1021.4 hPa | 0 mm | - | 72 W/m² | - |
| 1777191605 | 8.33° C | 57% | 1021.3 hPa | 0 mm | - | 191 W/m² | - |
| 1777191304 | 7.78° C | 55% | 1021.4 hPa | 0 mm | - | 248 W/m² | - |
| 1777191002 | 7.22° C | 58% | 1021.4 hPa | 0 mm | - | 91 W/m² | - |
| 1777190704 | 7.78° C | 59% | 1021.1 hPa | 0 mm | - | 145 W/m² | - |
| 1777190403 | 7.78° C | 58% | 1021.3 hPa | 0 mm | - | 187 W/m² | - |
* Rain latest hour (hover to see other rain measurements)
** Current wind speed in m/s (hover to see current wind gust speed)